createdAt,value
2022-10-19T00:01:19.446Z,12.46
2022-10-19T00:06:19.812Z,12.38
2022-10-19T00:08:46.349Z,12.28
2022-10-19T00:11:13.025Z,12.28
2022-10-19T00:13:39.646Z,12.32
2022-10-19T00:16:12.040Z,12.30
2022-10-19T00:18:39.677Z,12.28
2022-10-19T00:21:08.011Z,12.26
2022-10-19T00:23:34.728Z,11.54
2022-10-19T00:26:01.604Z,12.32
2022-10-19T00:28:28.214Z,11.69
2022-10-19T00:30:54.833Z,11.64
2022-10-19T00:33:22.561Z,12.29
2022-10-19T00:35:52.596Z,12.43
2022-10-19T00:38:20.858Z,12.46
2022-10-19T00:40:48.297Z,12.46
2022-10-19T00:43:17.007Z,12.43
2022-10-19T00:45:44.034Z,12.47
2022-10-19T00:48:14.925Z,12.52
2022-10-19T00:50:42.518Z,12.53
2022-10-19T00:53:09.787Z,12.47
2022-10-19T00:55:38.943Z,12.55
2022-10-19T00:58:05.776Z,12.58
2022-10-19T01:00:33.829Z,12.03
2022-10-19T01:03:02.813Z,12.41
2022-10-19T01:05:29.898Z,12.56
2022-10-19T01:07:56.952Z,12.50
2022-10-19T01:10:41.983Z,12.47
2022-10-19T01:13:11.486Z,12.33
2022-10-19T01:15:54.865Z,12.46
2022-10-19T01:18:31.279Z,12.33
2022-10-19T01:21:06.480Z,12.45
2022-10-19T01:23:59.188Z,12.43
2022-10-19T01:26:46.717Z,12.45
2022-10-19T01:29:51.020Z,12.42
2022-10-19T01:32:28.145Z,12.33
2022-10-19T01:35:04.878Z,12.53
2022-10-19T01:37:45.913Z,12.50
2022-10-19T01:40:24.700Z,12.46
2022-10-19T01:42:57.250Z,12.37
2022-10-19T01:45:47.498Z,12.24
2022-10-19T01:48:25.996Z,12.14
2022-10-19T01:50:57.376Z,11.41
2022-10-19T01:53:26.466Z,11.50
2022-10-19T01:55:55.627Z,11.06
2022-10-19T01:58:27.753Z,11.78
2022-10-19T02:00:58.110Z,12.19
2022-10-19T02:03:25.778Z,12.22
2022-10-19T02:05:54.154Z,12.21
2022-10-19T02:08:26.927Z,12.22
2022-10-19T02:10:55.960Z,12.22
2022-10-19T02:13:24.657Z,12.13
2022-10-19T02:15:54.697Z,12.08
2022-10-19T02:18:28.655Z,12.22
2022-10-19T02:20:55.386Z,11.61
2022-10-19T02:23:25.524Z,12.19
2022-10-19T02:25:52.298Z,11.68
2022-10-19T02:28:19.029Z,11.28
2022-10-19T02:30:45.737Z,11.41
2022-10-19T02:33:12.656Z,12.24
2022-10-19T02:35:39.603Z,11.80
2022-10-19T02:38:10.919Z,12.20
2022-10-19T02:40:43.561Z,11.81
2022-10-19T02:43:14.176Z,10.83
2022-10-19T02:45:51.041Z,11.48
2022-10-19T02:48:23.273Z,12.18
2022-10-19T02:50:49.952Z,12.13
2022-10-19T02:53:16.818Z,11.38
2022-10-19T02:55:43.824Z,11.49
2022-10-19T02:58:10.422Z,12.10
2022-10-19T03:00:37.021Z,12.07
2022-10-19T03:03:03.694Z,12.01
2022-10-19T03:05:30.222Z,11.87
2022-10-19T03:07:56.783Z,11.92
2022-10-19T03:10:23.390Z,11.46
2022-10-19T03:12:49.984Z,11.93
2022-10-19T03:15:18.053Z,11.97
2022-10-19T03:17:44.897Z,11.28
2022-10-19T03:20:12.067Z,11.93
2022-10-19T03:22:38.804Z,11.64
2022-10-19T03:25:05.773Z,11.88
2022-10-19T03:27:32.651Z,11.88
2022-10-19T03:29:59.581Z,11.74
2022-10-19T03:32:26.122Z,11.60
2022-10-19T03:34:52.694Z,11.64
2022-10-19T03:37:19.333Z,11.62
2022-10-19T03:39:45.957Z,11.59
2022-10-19T03:42:12.496Z,11.58
2022-10-19T03:44:39.021Z,11.54
2022-10-19T03:47:05.584Z,11.36
2022-10-19T03:49:34.552Z,11.59
2022-10-19T03:52:03.596Z,11.48
2022-10-19T03:54:30.112Z,10.68
2022-10-19T03:56:56.686Z,11.47
2022-10-19T03:59:24.296Z,11.44
2022-10-19T04:01:50.826Z,11.02
2022-10-19T04:04:19.019Z,11.40
2022-10-19T04:06:48.930Z,11.41
2022-10-19T04:09:20.251Z,11.45
2022-10-19T04:11:47.381Z,10.99
2022-10-19T04:14:22.859Z,11.53
2022-10-19T04:16:58.845Z,11.37
2022-10-19T04:19:25.538Z,11.49
2022-10-19T04:21:52.072Z,10.96
2022-10-19T04:24:19.240Z,11.44
2022-10-19T04:26:49.996Z,10.68
2022-10-19T04:29:19.069Z,11.52
2022-10-19T04:31:46.529Z,11.54
2022-10-19T04:34:13.187Z,11.09
2022-10-19T04:36:39.700Z,11.58
2022-10-19T04:39:07.040Z,11.60
2022-10-19T04:41:34.204Z,11.57
2022-10-19T04:44:03.153Z,11.52
2022-10-19T04:46:30.508Z,10.62
2022-10-19T04:48:58.073Z,11.30
2022-10-19T04:51:25.465Z,11.44
2022-10-19T04:53:59.520Z,11.16
2022-10-19T04:56:27.363Z,11.45
2022-10-19T04:58:56.499Z,11.48
2022-10-19T05:01:24.254Z,11.50
2022-10-19T05:03:59.172Z,10.93
2022-10-19T05:06:26.339Z,11.51
2022-10-19T05:08:53.264Z,10.56
2022-10-19T05:11:20.228Z,11.47
2022-10-19T05:13:47.385Z,11.33
2022-10-19T05:16:17.988Z,11.21
2022-10-19T05:18:56.123Z,11.25
2022-10-19T05:21:22.701Z,10.06
2022-10-19T05:23:53.053Z,11.19
2022-10-19T05:26:22.120Z,11.20
2022-10-19T05:28:57.867Z,11.20
2022-10-19T05:31:30.230Z,10.82
2022-10-19T05:33:57.186Z,9.98
2022-10-19T05:36:27.059Z,10.65
2022-10-19T05:38:55.859Z,10.48
2022-10-19T05:41:24.280Z,11.06
2022-10-19T05:43:56.122Z,10.89
2022-10-19T05:46:23.403Z,10.93
2022-10-19T05:48:50.175Z,10.66
2022-10-19T05:51:19.753Z,10.92
2022-10-19T05:53:46.803Z,10.21
2022-10-19T05:56:21.337Z,10.54
2022-10-19T05:58:48.918Z,10.75
2022-10-19T06:01:18.830Z,10.93
2022-10-19T06:03:47.099Z,10.95
2022-10-19T06:06:13.900Z,10.96
2022-10-19T06:08:40.540Z,10.85
2022-10-19T06:11:18.020Z,10.97
2022-10-19T06:13:46.533Z,9.82
2022-10-19T06:16:14.919Z,10.88
2022-10-19T06:18:42.727Z,11.00
2022-10-19T06:21:14.488Z,11.00
2022-10-19T06:26:12.353Z,10.95
2022-10-19T06:28:40.355Z,10.58
2022-10-19T06:31:09.204Z,10.62
2022-10-19T06:33:36.646Z,10.36
2022-10-19T06:36:12.339Z,10.81
2022-10-19T06:38:39.068Z,9.63
2022-10-19T06:41:06.136Z,10.29
2022-10-19T06:43:33.183Z,10.84
2022-10-19T06:46:07.224Z,10.72
2022-10-19T06:48:34.007Z,9.81
2022-10-19T06:51:02.147Z,10.40
2022-10-19T06:53:29.254Z,10.88
2022-10-19T06:55:59.264Z,10.89
2022-10-19T06:58:26.278Z,10.87
2022-10-19T07:01:00.428Z,10.98
2022-10-19T07:03:28.581Z,9.90
2022-10-19T07:05:57.098Z,10.91
2022-10-19T07:08:25.150Z,10.16
2022-10-19T07:11:04.216Z,11.02
2022-10-19T07:13:31.405Z,11.12
2022-10-19T07:16:05.535Z,11.11
2022-10-19T07:18:33.316Z,10.50
2022-10-19T07:21:01.925Z,11.21
2022-10-19T07:23:30.198Z,11.25
2022-10-19T07:26:01.512Z,10.93
2022-10-19T07:28:28.721Z,11.22
2022-10-19T07:30:55.648Z,10.63
2022-10-19T07:33:22.591Z,10.71
2022-10-19T07:35:49.257Z,11.24
2022-10-19T07:38:15.986Z,11.23
2022-10-19T07:40:44.926Z,10.58
2022-10-19T07:43:14.032Z,11.03
2022-10-19T07:45:40.594Z,10.96
2022-10-19T07:48:07.254Z,11.13
2022-10-19T07:50:33.829Z,11.42
2022-10-19T07:53:00.450Z,11.35
2022-10-19T07:55:26.987Z,11.47
2022-10-19T07:57:53.642Z,11.62
2022-10-19T08:00:20.196Z,11.64
2022-10-19T08:03:00.084Z,11.31
2022-10-19T08:05:34.267Z,11.10
2022-10-19T08:08:00.878Z,11.96
2022-10-19T08:10:27.846Z,12.10
2022-10-19T08:12:54.404Z,12.16
2022-10-19T08:15:20.963Z,12.23
2022-10-19T08:17:47.527Z,11.43
2022-10-19T08:20:14.136Z,11.69
2022-10-19T08:22:41.805Z,11.70
2022-10-19T08:25:08.609Z,11.79
2022-10-19T08:30:07.071Z,12.52
2022-10-19T08:32:33.806Z,12.43
2022-10-19T08:35:00.579Z,12.37
2022-10-19T08:37:40.776Z,12.36
2022-10-19T08:40:24.145Z,12.88
2022-10-19T08:43:08.277Z,13.02
2022-10-19T08:46:01.496Z,13.06
2022-10-19T08:48:37.945Z,13.07
2022-10-19T08:51:05.903Z,12.61
2022-10-19T08:53:53.862Z,13.12
2022-10-19T08:56:49.201Z,13.18
2022-10-19T08:59:24.060Z,13.23
2022-10-19T09:02:09.308Z,13.26
2022-10-19T09:04:42.716Z,13.30
2022-10-19T09:07:29.408Z,13.37
2022-10-19T09:10:03.274Z,12.85
2022-10-19T09:12:58.472Z,13.66
2022-10-19T09:15:47.406Z,13.46
2022-10-19T09:18:25.083Z,14.05
2022-10-19T09:21:00.090Z,14.20
2022-10-19T09:23:45.643Z,14.37
2022-10-19T09:26:18.841Z,13.90
2022-10-19T09:29:05.597Z,14.61
2022-10-19T09:31:40.350Z,13.88
2022-10-19T09:34:12.425Z,14.81
2022-10-19T09:36:56.990Z,14.91
2022-10-19T09:39:27.112Z,14.94
2022-10-19T09:42:07.510Z,15.11
2022-10-19T09:44:34.390Z,15.20
2022-10-19T09:47:22.602Z,15.25
2022-10-19T09:49:49.538Z,15.28
2022-10-19T09:52:31.340Z,15.34
2022-10-19T09:55:24.856Z,15.31
2022-10-19T09:58:00.126Z,15.37
2022-10-19T10:00:37.059Z,15.39
2022-10-19T10:03:05.941Z,15.42
2022-10-19T10:05:39.054Z,15.52
2022-10-19T10:08:14.404Z,15.65
2022-10-19T10:11:05.138Z,14.92
2022-10-19T10:13:36.912Z,15.33
2022-10-19T10:16:08.511Z,15.78
2022-10-19T10:18:55.690Z,15.84
2022-10-19T10:21:28.816Z,15.93
2022-10-19T10:24:07.074Z,15.93
2022-10-19T10:26:43.632Z,16.10
2022-10-19T10:29:39.343Z,16.08
2022-10-19T10:32:12.360Z,16.04
2022-10-19T10:34:51.849Z,16.10
2022-10-19T10:37:39.266Z,15.94
2022-10-19T10:40:17.866Z,15.88
2022-10-19T10:42:50.302Z,15.91
2022-10-19T10:45:41.284Z,15.81
2022-10-19T10:48:24.738Z,15.96
2022-10-19T10:50:52.053Z,15.74
2022-10-19T10:53:37.080Z,15.86
2022-10-19T10:56:06.094Z,15.84
2022-10-19T10:58:44.356Z,15.91
2022-10-19T11:01:23.064Z,15.20
2022-10-19T11:04:04.249Z,15.93
2022-10-19T11:06:33.250Z,16.16
2022-10-19T11:09:18.272Z,15.50
2022-10-19T11:11:50.684Z,16.01
2022-10-19T11:14:32.128Z,16.28
2022-10-19T11:17:22.966Z,15.91
2022-10-19T11:19:51.352Z,16.15
2022-10-19T11:22:36.907Z,16.04
2022-10-19T11:25:12.539Z,15.86
2022-10-19T11:28:00.867Z,15.75
2022-10-19T11:30:31.994Z,15.63
2022-10-19T11:33:05.739Z,15.57
2022-10-19T11:35:52.822Z,14.81
2022-10-19T11:38:31.193Z,15.49
2022-10-19T11:41:29.461Z,15.55
2022-10-19T11:44:26.752Z,15.65
2022-10-19T11:47:23.550Z,15.79
2022-10-19T11:50:02.048Z,15.55
2022-10-19T11:52:34.720Z,16.13
2022-10-19T11:55:49.125Z,16.32
2022-10-19T11:58:38.515Z,16.50
2022-10-19T12:01:05.136Z,16.56
2022-10-19T12:04:05.883Z,16.57
2022-10-19T12:06:48.733Z,16.49
2022-10-19T12:09:47.741Z,16.27
2022-10-19T12:12:30.843Z,16.01
2022-10-19T12:15:13.502Z,15.89
2022-10-19T12:17:45.014Z,15.11
2022-10-19T12:20:37.239Z,15.57
2022-10-19T12:23:21.563Z,14.82
2022-10-19T12:25:49.733Z,15.51
2022-10-19T12:28:26.694Z,15.53
2022-10-19T12:30:54.622Z,15.56
2022-10-19T12:33:29.007Z,15.69
2022-10-19T12:36:12.221Z,15.68
2022-10-19T12:39:00.817Z,15.03
2022-10-19T12:41:41.153Z,15.87
2022-10-19T12:44:43.980Z,15.94
2022-10-19T12:47:18.794Z,16.01
2022-10-19T12:49:51.089Z,16.03
2022-10-19T12:52:48.088Z,16.04
2022-10-19T12:55:17.525Z,16.02
2022-10-19T12:57:48.246Z,15.38
2022-10-19T13:00:23.365Z,15.90
2022-10-19T13:03:07.464Z,15.87
2022-10-19T13:05:35.614Z,15.79
2022-10-19T13:08:06.921Z,15.28
2022-10-19T13:10:35.852Z,14.68
2022-10-19T13:13:03.139Z,15.69
2022-10-19T13:15:35.822Z,15.62
2022-10-19T13:18:03.190Z,15.60
2022-10-19T13:20:29.826Z,15.55
2022-10-19T13:22:59.417Z,15.58
2022-10-19T13:25:27.978Z,15.56
2022-10-19T13:28:02.323Z,15.55
2022-10-19T13:30:38.414Z,15.54
2022-10-19T13:33:29.883Z,15.53
2022-10-19T13:35:59.081Z,15.58
2022-10-19T13:38:29.899Z,15.56
2022-10-19T13:40:56.438Z,15.51
2022-10-19T13:43:28.687Z,15.41
2022-10-19T13:46:21.588Z,15.50
2022-10-19T13:49:20.557Z,15.48
2022-10-19T13:52:22.637Z,15.47
2022-10-19T13:54:55.453Z,15.46
2022-10-19T13:57:50.026Z,15.43
2022-10-19T14:00:36.639Z,14.32
2022-10-19T14:03:29.011Z,15.30
2022-10-19T14:06:13.036Z,15.35
2022-10-19T14:09:13.706Z,15.33
2022-10-19T14:11:44.460Z,15.36
2022-10-19T14:14:10.952Z,15.37
2022-10-19T14:17:03.789Z,15.38
2022-10-19T14:19:46.137Z,15.35
2022-10-19T14:22:38.528Z,15.33
2022-10-19T14:25:21.715Z,15.23
2022-10-19T14:27:56.675Z,14.44
2022-10-19T14:30:26.909Z,15.23
2022-10-19T14:32:56.874Z,14.04
2022-10-19T14:35:36.496Z,14.27
2022-10-19T14:38:06.118Z,15.14
2022-10-19T14:40:37.524Z,15.02
2022-10-19T14:43:29.937Z,14.93
2022-10-19T14:46:08.453Z,15.06
2022-10-19T14:48:36.820Z,14.96
2022-10-19T14:51:10.002Z,14.72
2022-10-19T14:53:45.425Z,14.97
2022-10-19T14:56:31.408Z,14.96
2022-10-19T14:59:07.425Z,14.88
2022-10-19T15:01:35.514Z,14.79
2022-10-19T15:04:02.455Z,14.08
2022-10-19T15:06:32.960Z,14.52
2022-10-19T15:09:03.494Z,14.72
2022-10-19T15:11:36.522Z,14.67
2022-10-19T15:14:12.802Z,14.59
2022-10-19T15:16:39.279Z,14.55
2022-10-19T15:19:14.296Z,14.48
2022-10-19T15:21:40.836Z,14.21
2022-10-19T15:24:21.240Z,14.36
2022-10-19T15:27:06.618Z,14.21
2022-10-19T15:29:35.596Z,13.57
2022-10-19T15:32:16.686Z,14.09
2022-10-19T15:34:45.062Z,14.05
2022-10-19T15:37:19.910Z,14.00
2022-10-19T15:39:47.341Z,13.09
2022-10-19T15:42:49.676Z,13.84
2022-10-19T15:45:36.692Z,13.40
2022-10-19T15:48:21.644Z,13.63
2022-10-19T15:50:49.853Z,12.74
2022-10-19T15:53:16.769Z,13.41
2022-10-19T15:55:43.361Z,13.33
2022-10-19T15:58:16.060Z,13.20
2022-10-19T16:00:42.990Z,12.86
2022-10-19T16:03:09.602Z,13.02
2022-10-19T16:05:36.534Z,12.75
2022-10-19T16:08:03.550Z,12.71
2022-10-19T16:10:30.082Z,12.48
2022-10-19T16:12:56.713Z,12.61
2022-10-19T16:15:23.686Z,12.53
2022-10-19T16:17:55.147Z,12.45
2022-10-19T16:20:23.544Z,12.36
2022-10-19T16:22:50.907Z,12.26
2022-10-19T16:25:17.970Z,12.20
2022-10-19T16:27:44.522Z,11.35
2022-10-19T16:30:11.652Z,11.99
2022-10-19T16:32:39.861Z,11.15
2022-10-19T16:35:08.450Z,11.61
2022-10-19T16:37:35.328Z,10.76
2022-10-19T16:40:02.101Z,11.07
2022-10-19T16:42:30.539Z,10.17
2022-10-19T16:44:57.278Z,10.68
2022-10-19T16:47:23.796Z,10.55
2022-10-19T16:49:58.248Z,11.16
2022-10-19T16:52:24.807Z,11.07
2022-10-19T16:54:51.337Z,10.96
2022-10-19T16:57:17.992Z,10.17
2022-10-19T16:59:44.764Z,10.80
2022-10-19T17:02:11.846Z,10.71
2022-10-19T17:04:38.928Z,10.64
2022-10-19T17:07:05.480Z,10.59
2022-10-19T17:09:49.689Z,9.71
2022-10-19T17:12:18.646Z,10.43
2022-10-19T17:14:45.253Z,10.36
2022-10-19T17:17:12.073Z,10.24
2022-10-19T17:19:38.943Z,10.23
2022-10-19T17:22:05.756Z,9.66
2022-10-19T17:24:32.507Z,8.84
2022-10-19T17:27:03.012Z,10.05
2022-10-19T17:29:29.975Z,9.99
2022-10-19T17:31:56.600Z,9.94
2022-10-19T17:34:23.193Z,9.89
2022-10-19T17:36:49.881Z,9.81
2022-10-19T17:39:25.649Z,9.77
2022-10-19T17:42:01.253Z,8.72
2022-10-19T17:44:29.951Z,9.05
2022-10-19T17:46:56.511Z,8.78
2022-10-19T17:49:23.450Z,8.59
2022-10-19T17:51:52.895Z,8.50
2022-10-19T17:54:19.507Z,8.78
2022-10-19T17:56:46.238Z,9.42
2022-10-19T17:59:13.363Z,9.38
2022-10-19T18:01:40.361Z,8.32
2022-10-19T18:04:06.964Z,8.65
2022-10-19T18:06:36.209Z,8.79
2022-10-19T18:09:05.728Z,9.18
2022-10-19T18:11:36.992Z,8.36
2022-10-19T18:14:05.910Z,8.21
2022-10-19T18:16:35.232Z,8.49
2022-10-19T18:19:03.226Z,9.02
2022-10-19T18:21:33.645Z,8.39
2022-10-19T18:24:02.535Z,8.96
2022-10-19T18:26:31.761Z,8.93
2022-10-19T18:28:59.647Z,7.77
2022-10-19T18:31:32.038Z,8.85
2022-10-19T18:34:03.131Z,8.64
2022-10-19T18:36:31.131Z,8.37
2022-10-19T18:39:02.692Z,8.17
2022-10-19T18:41:29.762Z,8.70
2022-10-19T18:43:59.318Z,8.67
2022-10-19T18:46:26.576Z,8.63
2022-10-19T18:48:53.825Z,8.59
2022-10-19T18:51:22.059Z,8.57
2022-10-19T18:53:49.089Z,8.53
2022-10-19T18:56:18.841Z,8.51
2022-10-19T18:58:45.683Z,7.51
2022-10-19T19:01:17.907Z,8.39
2022-10-19T19:03:47.125Z,8.17
2022-10-19T19:06:16.480Z,8.36
2022-10-19T19:11:18.602Z,8.25
2022-10-19T19:13:50.738Z,8.23
2022-10-19T19:16:17.751Z,7.68
2022-10-19T19:18:44.521Z,8.13
2022-10-19T19:21:23.316Z,8.09
2022-10-19T19:23:51.493Z,7.45
2022-10-19T19:26:19.477Z,7.98
2022-10-19T19:28:49.026Z,7.35
2022-10-19T19:31:18.400Z,7.89
2022-10-19T19:33:46.970Z,7.85
2022-10-19T19:36:15.681Z,7.82
2022-10-19T19:38:42.678Z,7.51
2022-10-19T19:41:12.430Z,7.76
2022-10-19T19:43:39.555Z,7.36
2022-10-19T19:46:09.487Z,7.70
2022-10-19T19:48:37.039Z,7.65
2022-10-19T19:51:03.822Z,7.62
2022-10-19T19:53:30.964Z,7.44
2022-10-19T19:55:57.522Z,6.92
2022-10-19T19:58:24.077Z,7.03
2022-10-19T20:00:50.699Z,7.55
2022-10-19T20:03:17.267Z,7.53
2022-10-19T20:05:43.804Z,6.79
2022-10-19T20:08:11.228Z,7.49
2022-10-19T20:10:39.712Z,7.47
2022-10-19T20:13:06.309Z,7.05
2022-10-19T20:15:33.045Z,6.71
2022-10-19T20:17:59.650Z,7.36
2022-10-19T20:20:26.301Z,7.03
2022-10-19T20:22:52.961Z,7.28
2022-10-19T20:25:19.609Z,7.23
2022-10-19T20:27:46.224Z,7.16
2022-10-19T20:30:12.918Z,7.11
2022-10-19T20:32:39.556Z,7.08
2022-10-19T20:35:07.323Z,6.91
2022-10-19T20:37:34.303Z,6.99
2022-10-19T20:40:07.445Z,6.58
2022-10-19T20:42:36.139Z,6.74
2022-10-19T20:45:03.346Z,6.37
2022-10-19T20:47:30.049Z,6.76
2022-10-19T20:49:56.639Z,5.95
2022-10-19T20:52:23.301Z,6.68
2022-10-19T20:54:49.885Z,6.65
2022-10-19T20:57:16.451Z,6.61
2022-10-19T20:59:43.971Z,6.28
2022-10-19T21:02:11.061Z,5.04
2022-10-19T21:04:37.772Z,6.52
2022-10-19T21:07:05.037Z,6.17
2022-10-19T21:09:31.928Z,5.93
2022-10-19T21:11:58.566Z,6.40
2022-10-19T21:14:30.030Z,5.54
2022-10-19T21:16:57.723Z,6.31
2022-10-19T21:19:26.127Z,6.30
2022-10-19T21:21:55.838Z,6.26
2022-10-19T21:24:28.471Z,6.25
2022-10-19T21:26:55.359Z,5.23
2022-10-19T21:29:21.982Z,5.31
2022-10-19T21:31:52.095Z,5.00
2022-10-19T21:34:26.802Z,6.18
2022-10-19T21:36:54.031Z,5.20
2022-10-19T21:39:21.278Z,6.19
2022-10-19T21:41:48.358Z,6.17
2022-10-19T21:44:17.027Z,6.15
2022-10-19T21:46:46.690Z,5.89
2022-10-19T21:49:13.269Z,5.65
2022-10-19T21:51:44.530Z,6.03
2022-10-19T21:54:13.429Z,6.14
2022-10-19T21:56:40.061Z,6.12
2022-10-19T21:59:06.749Z,6.14
2022-10-19T22:01:38.618Z,5.42
2022-10-19T22:04:11.734Z,6.10
2022-10-19T22:06:39.265Z,6.08
2022-10-19T22:09:08.325Z,6.07
2022-10-19T22:11:34.962Z,5.34
2022-10-19T22:14:03.081Z,6.06
2022-10-19T22:16:31.101Z,6.06
2022-10-19T22:18:57.925Z,5.27
2022-10-19T22:21:30.584Z,5.08
2022-10-19T22:24:03.496Z,5.12
2022-10-19T22:26:35.559Z,5.96
2022-10-19T22:29:04.103Z,5.78
2022-10-19T22:31:31.922Z,5.54
2022-10-19T22:34:00.862Z,5.89
2022-10-19T22:36:27.439Z,5.27
2022-10-19T22:38:55.049Z,4.82
2022-10-19T22:41:21.563Z,4.97
2022-10-19T22:43:48.220Z,4.97
2022-10-19T22:46:14.784Z,4.50
2022-10-19T22:48:41.346Z,5.56
2022-10-19T22:51:07.992Z,5.74
2022-10-19T22:53:34.657Z,5.72
2022-10-19T22:56:01.470Z,4.70
2022-10-19T22:58:28.125Z,5.05
2022-10-19T23:01:06.595Z,5.66
2022-10-19T23:03:33.831Z,4.73
2022-10-19T23:06:00.419Z,5.36
2022-10-19T23:08:27.121Z,5.54
2022-10-19T23:10:53.781Z,4.41
2022-10-19T23:13:20.755Z,5.51
2022-10-19T23:15:47.580Z,5.46
2022-10-19T23:18:14.161Z,5.45
2022-10-19T23:20:40.880Z,5.24
2022-10-19T23:23:07.645Z,5.48
2022-10-19T23:25:34.275Z,5.50
2022-10-19T23:28:00.834Z,4.76
2022-10-19T23:30:27.580Z,4.70
2022-10-19T23:32:54.178Z,5.20
2022-10-19T23:35:20.690Z,5.46
2022-10-19T23:37:47.258Z,5.44
2022-10-19T23:40:13.825Z,5.42
2022-10-19T23:42:40.557Z,4.79
2022-10-19T23:45:07.411Z,4.30
2022-10-19T23:47:34.187Z,5.32
2022-10-19T23:50:01.030Z,4.32
2022-10-19T23:52:28.474Z,5.27
2022-10-19T23:54:55.048Z,5.02
2022-10-19T23:57:21.571Z,4.46
2022-10-19T23:59:48.142Z,5.18
